createdAt,value
2023-12-07T00:01:35.405Z,98714.27
2023-12-07T00:04:07.376Z,98716.52
2023-12-07T00:06:39.308Z,98720.66
2023-12-07T00:09:11.100Z,98722.80
2023-12-07T00:11:42.882Z,98725.37
2023-12-07T00:14:14.696Z,98727.59
2023-12-07T00:16:46.497Z,98729.89
2023-12-07T00:19:18.326Z,98729.14
2023-12-07T00:21:50.213Z,98723.87
2023-12-07T00:24:22.044Z,98726.95
2023-12-07T00:26:54.141Z,98727.27
2023-12-07T00:29:25.949Z,98727.70
2023-12-07T00:31:57.705Z,98723.61
2023-12-07T00:34:29.537Z,98722.66
2023-12-07T00:37:01.469Z,98725.27
2023-12-07T00:39:33.657Z,98720.35
2023-12-07T00:42:05.595Z,98726.34
2023-12-07T00:44:40.834Z,98723.30
2023-12-07T00:47:12.741Z,98723.54
2023-12-07T00:49:44.517Z,98726.86
2023-12-07T00:52:16.801Z,98730.52
2023-12-07T00:54:48.612Z,98732.30
2023-12-07T00:57:20.421Z,98734.23
2023-12-07T00:59:52.187Z,98734.77
2023-12-07T01:02:24.182Z,98730.38
2023-12-07T01:04:56.132Z,98738.57
2023-12-07T01:07:28.066Z,98738.35
2023-12-07T01:09:59.860Z,98738.96
2023-12-07T01:12:31.722Z,98738.70
2023-12-07T01:15:03.505Z,98736.56
2023-12-07T01:17:35.297Z,98737.02
2023-12-07T01:20:12.977Z,98739.80
2023-12-07T01:22:46.750Z,98741.54
2023-12-07T01:25:23.002Z,98736.30
2023-12-07T01:27:56.241Z,98738.28
2023-12-07T01:30:28.307Z,98734.91
2023-12-07T01:33:00.760Z,98737.80
2023-12-07T01:35:32.615Z,98746.74
2023-12-07T01:38:05.316Z,98747.55
2023-12-07T01:40:37.132Z,98745.83
2023-12-07T01:43:09.019Z,98741.24
2023-12-07T01:45:40.835Z,98740.75
2023-12-07T01:48:12.840Z,98744.16
2023-12-07T01:50:44.774Z,98741.20
2023-12-07T01:53:18.181Z,98739.32
2023-12-07T01:55:50.294Z,98742.67
2023-12-07T01:58:23.239Z,98741.73
2023-12-07T02:00:55.228Z,98743.52
2023-12-07T02:03:28.539Z,98743.73
2023-12-07T02:06:02.331Z,98740.90
2023-12-07T02:08:34.149Z,98743.02
2023-12-07T02:11:06.713Z,98739.89
2023-12-07T02:13:38.945Z,98740.23
2023-12-07T02:16:17.378Z,98743.50
2023-12-07T02:18:59.501Z,98744.30
2023-12-07T02:21:36.877Z,98747.36
2023-12-07T02:24:10.521Z,98750.11
2023-12-07T02:26:42.357Z,98755.34
2023-12-07T02:29:14.159Z,98752.07
2023-12-07T02:31:45.991Z,98756.45
2023-12-07T02:34:18.060Z,98757.14
2023-12-07T02:36:51.206Z,98756.15
2023-12-07T02:39:25.487Z,98761.49
2023-12-07T02:41:58.546Z,98757.77
2023-12-07T02:44:30.572Z,98761.45
2023-12-07T02:47:03.606Z,98759.98
2023-12-07T02:49:35.598Z,98764.98
2023-12-07T02:52:08.268Z,98765.80
2023-12-07T02:54:40.091Z,98768.52
2023-12-07T02:57:11.897Z,98773.48
2023-12-07T02:59:43.636Z,98777.30
2023-12-07T03:02:15.422Z,98780.68
2023-12-07T03:04:47.251Z,98778.46
2023-12-07T03:07:19.127Z,98776.35
2023-12-07T03:09:50.886Z,98782.77
2023-12-07T03:12:22.819Z,98791.20
2023-12-07T03:14:54.815Z,98790.46
2023-12-07T03:17:26.765Z,98787.27
2023-12-07T03:19:58.589Z,98784.77
2023-12-07T03:22:30.727Z,98781.11
2023-12-07T03:25:02.820Z,98782.95
2023-12-07T03:27:34.610Z,98782.28
2023-12-07T03:30:08.079Z,98775.95
2023-12-07T03:32:39.898Z,98773.61
2023-12-07T03:35:11.708Z,98769.29
2023-12-07T03:37:43.472Z,98770.77
2023-12-07T03:40:15.905Z,98770.93
2023-12-07T03:42:52.521Z,98775.57
2023-12-07T03:45:29.547Z,98774.19
2023-12-07T03:48:01.501Z,98778.77
2023-12-07T03:50:33.414Z,98783.90
2023-12-07T03:53:07.513Z,98783.32
2023-12-07T03:55:39.938Z,98783.70
2023-12-07T03:58:11.894Z,98785.70
2023-12-07T04:00:43.730Z,98792.11
2023-12-07T04:03:15.725Z,98792.06
2023-12-07T04:05:48.057Z,98797.11
2023-12-07T04:08:20.725Z,98803.41
2023-12-07T04:10:52.512Z,98803.97
2023-12-07T04:13:24.338Z,98807.90
2023-12-07T04:15:56.499Z,98809.38
2023-12-07T04:18:28.404Z,98810.36
2023-12-07T04:21:00.216Z,98804.23
2023-12-07T04:23:32.018Z,98805.56
2023-12-07T04:26:03.894Z,98801.56
2023-12-07T04:28:35.783Z,98801.02
2023-12-07T04:31:08.348Z,98802.13
2023-12-07T04:33:40.371Z,98808.11
2023-12-07T04:36:13.237Z,98810.77
2023-12-07T04:38:44.988Z,98809.80
2023-12-07T04:41:17.044Z,98812.27
2023-12-07T04:43:48.785Z,98813.95
2023-12-07T04:46:20.788Z,98817.96
2023-12-07T04:48:52.737Z,98821.95
2023-12-07T04:51:24.549Z,98825.31
2023-12-07T04:54:03.169Z,98825.93
2023-12-07T04:56:41.612Z,98823.25
2023-12-07T04:59:13.436Z,98823.41
2023-12-07T05:01:45.254Z,98820.02
2023-12-07T05:04:17.145Z,98824.15
2023-12-07T05:06:48.936Z,98828.11
2023-12-07T05:09:20.703Z,98834.85
2023-12-07T05:11:52.479Z,98837.09
2023-12-07T05:14:24.281Z,98841.11
2023-12-07T05:16:57.092Z,98840.05
2023-12-07T05:19:29.121Z,98842.14
2023-12-07T05:22:00.927Z,98852.25
2023-12-07T05:24:35.615Z,98854.34
2023-12-07T05:27:07.939Z,98862.18
2023-12-07T05:29:39.997Z,98862.99
2023-12-07T05:32:12.077Z,98867.44
2023-12-07T05:34:44.165Z,98871.34
2023-12-07T05:37:15.939Z,98875.68
2023-12-07T05:39:47.691Z,98875.31
2023-12-07T05:42:19.973Z,98874.05
2023-12-07T05:44:51.813Z,98871.63
2023-12-07T05:47:24.487Z,98873.55
2023-12-07T05:49:58.700Z,98876.48
2023-12-07T05:52:30.499Z,98880.36
2023-12-07T05:55:02.641Z,98880.79
2023-12-07T05:57:34.503Z,98887.27
2023-12-07T06:00:10.318Z,98889.54
2023-12-07T06:02:42.068Z,98893.17
2023-12-07T06:05:14.261Z,98894.66
2023-12-07T06:07:46.039Z,98892.92
2023-12-07T06:10:18.030Z,98896.68
2023-12-07T06:12:49.901Z,98898.23
2023-12-07T06:15:22.179Z,98899.58
2023-12-07T06:17:54.062Z,98905.13
2023-12-07T06:20:25.979Z,98902.52
2023-12-07T06:22:58.896Z,98902.51
2023-12-07T06:25:30.764Z,98906.02
2023-12-07T06:28:02.593Z,98908.45
2023-12-07T06:30:34.447Z,98910.84
2023-12-07T06:33:06.305Z,98920.79
2023-12-07T06:35:38.120Z,98919.02
2023-12-07T06:38:09.977Z,98926.12
2023-12-07T06:40:41.894Z,98929.48
2023-12-07T06:43:14.444Z,98931.48
2023-12-07T06:45:46.296Z,98931.19
2023-12-07T06:48:18.136Z,98932.44
2023-12-07T06:50:50.027Z,98934.70
2023-12-07T06:53:21.811Z,98934.29
2023-12-07T06:55:53.613Z,98933.41
2023-12-07T06:58:25.670Z,98933.48
2023-12-07T07:00:58.611Z,98932.27
2023-12-07T07:03:30.606Z,98933.68
2023-12-07T07:06:02.540Z,98935.65
2023-12-07T07:08:34.285Z,98936.25
2023-12-07T07:11:13.842Z,98939.65
2023-12-07T07:13:45.745Z,98939.75
2023-12-07T07:16:17.537Z,98942.17
2023-12-07T07:18:49.476Z,98944.21
2023-12-07T07:21:21.625Z,98948.80
2023-12-07T07:23:53.401Z,98950.09
2023-12-07T07:26:26.213Z,98953.37
2023-12-07T07:28:57.982Z,98954.98
2023-12-07T07:31:29.777Z,98960.17
2023-12-07T07:34:02.023Z,98959.77
2023-12-07T07:36:34.361Z,98961.55
2023-12-07T07:39:08.780Z,98962.04
2023-12-07T07:41:40.562Z,98960.55
2023-12-07T07:44:12.325Z,98960.10
2023-12-07T07:46:45.362Z,98961.48
2023-12-07T07:49:17.208Z,98961.13
2023-12-07T07:51:49.034Z,98969.36
2023-12-07T07:54:20.847Z,98965.81
2023-12-07T07:56:52.664Z,98971.48
2023-12-07T07:59:24.467Z,98968.45
2023-12-07T08:01:56.232Z,98971.31
2023-12-07T08:04:27.997Z,98970.04
2023-12-07T08:06:59.774Z,98965.80
2023-12-07T08:09:31.702Z,98966.71
2023-12-07T08:12:03.525Z,98965.00
2023-12-07T08:14:37.184Z,98966.41
2023-12-07T08:17:09.101Z,98972.25
2023-12-07T08:19:40.910Z,98970.41
2023-12-07T08:22:12.779Z,98971.35
2023-12-07T08:24:45.464Z,98977.60
2023-12-07T08:27:18.470Z,98976.75
2023-12-07T08:29:50.228Z,98978.27
2023-12-07T08:32:22.135Z,98976.27
2023-12-07T08:34:53.951Z,98983.16
2023-12-07T08:37:26.034Z,98987.95
2023-12-07T08:39:58.354Z,98988.27
2023-12-07T08:42:32.651Z,98994.54
2023-12-07T08:45:04.674Z,98996.71
2023-12-07T08:47:38.170Z,98997.16
2023-12-07T08:50:10.544Z,98997.60
2023-12-07T08:52:47.605Z,98999.69
2023-12-07T08:55:23.266Z,99007.28
2023-12-07T08:57:56.337Z,99007.75
2023-12-07T09:00:28.163Z,99011.49
2023-12-07T09:02:59.967Z,99012.28
2023-12-07T09:05:32.492Z,99012.84
2023-12-07T09:08:04.473Z,99011.34
2023-12-07T09:10:36.339Z,99019.35
2023-12-07T09:13:08.254Z,99017.72
2023-12-07T09:15:40.090Z,99021.59
2023-12-07T09:18:12.668Z,99024.42
2023-12-07T09:20:47.027Z,99020.14
2023-12-07T09:23:19.281Z,99017.63
2023-12-07T09:25:51.066Z,99016.17
2023-12-07T09:28:23.092Z,99012.95
2023-12-07T09:30:55.670Z,99014.31
2023-12-07T09:33:27.543Z,99011.54
2023-12-07T09:35:59.374Z,99011.50
2023-12-07T09:38:31.144Z,99005.96
2023-12-07T09:41:03.034Z,99006.28
2023-12-07T09:43:34.829Z,99006.06
2023-12-07T09:46:07.716Z,99005.04
2023-12-07T09:48:44.656Z,99003.23
2023-12-07T09:51:17.280Z,99007.54
2023-12-07T09:53:55.035Z,99006.16
2023-12-07T09:56:26.997Z,99006.86
2023-12-07T09:58:58.756Z,99009.37
2023-12-07T10:01:33.389Z,99006.08
2023-12-07T10:04:21.397Z,99004.73
2023-12-07T10:06:53.575Z,99007.05
2023-12-07T10:09:33.027Z,99001.65
2023-12-07T10:12:09.803Z,99001.09
2023-12-07T10:14:41.725Z,98999.61
2023-12-07T10:17:13.979Z,99002.04
2023-12-07T10:19:46.006Z,99000.45
2023-12-07T10:22:22.393Z,98997.82
2023-12-07T10:24:54.392Z,99003.46
2023-12-07T10:27:27.139Z,98995.50
2023-12-07T10:29:59.364Z,98992.50
2023-12-07T10:32:31.271Z,98993.52
2023-12-07T10:35:03.863Z,98995.44
2023-12-07T10:37:35.737Z,98996.26
2023-12-07T10:40:10.874Z,98997.98
2023-12-07T10:42:47.080Z,98998.01
2023-12-07T10:45:22.438Z,98995.67
2023-12-07T10:47:56.357Z,98996.40
2023-12-07T10:50:33.442Z,98994.11
2023-12-07T10:53:11.188Z,98996.00
2023-12-07T10:55:49.780Z,98994.95
2023-12-07T10:58:23.993Z,98995.77
2023-12-07T11:00:56.776Z,98990.58
2023-12-07T11:03:30.836Z,98991.10
2023-12-07T11:06:06.910Z,98992.23
2023-12-07T11:08:45.322Z,98993.65
2023-12-07T11:11:26.109Z,98994.62
2023-12-07T11:14:04.977Z,98994.05
2023-12-07T11:16:42.164Z,98997.91
2023-12-07T11:22:13.994Z,98994.84
2023-12-07T11:25:02.523Z,98996.00
2023-12-07T11:27:35.456Z,98996.92
2023-12-07T11:30:09.103Z,98995.58
2023-12-07T11:32:41.841Z,98997.67
2023-12-07T11:35:16.728Z,99001.52
2023-12-07T11:38:07.155Z,99003.91
2023-12-07T11:40:44.366Z,99004.59
2023-12-07T11:43:33.039Z,99002.52
2023-12-07T11:46:05.164Z,99002.17
2023-12-07T11:48:37.043Z,98996.45
2023-12-07T11:51:10.061Z,98996.77
2023-12-07T11:53:41.832Z,98997.77
2023-12-07T11:56:14.888Z,98996.71
2023-12-07T11:58:48.720Z,98999.18
2023-12-07T12:01:21.951Z,98998.81
2023-12-07T12:03:53.862Z,98996.48
2023-12-07T12:06:27.528Z,98994.15
2023-12-07T12:09:00.747Z,98987.20
2023-12-07T12:11:32.761Z,98983.60
2023-12-07T12:14:05.335Z,98982.92
2023-12-07T12:16:37.531Z,98984.07
2023-12-07T12:19:12.209Z,98992.29
2023-12-07T12:21:45.847Z,98989.93
2023-12-07T12:24:17.697Z,98991.13
2023-12-07T12:26:50.289Z,98994.79
2023-12-07T12:29:31.168Z,98995.42
2023-12-07T12:32:06.856Z,98997.80
2023-12-07T12:34:39.091Z,98999.45
2023-12-07T12:37:13.271Z,99000.56
2023-12-07T12:39:45.114Z,98997.98
2023-12-07T12:42:17.300Z,98996.17
2023-12-07T12:44:49.142Z,98995.05
2023-12-07T12:47:20.987Z,98999.79
2023-12-07T12:49:53.418Z,99000.52
2023-12-07T12:52:27.803Z,99003.51
2023-12-07T12:55:08.563Z,99001.87
2023-12-07T12:57:40.414Z,99008.77
2023-12-07T13:00:14.556Z,99009.11
2023-12-07T13:02:46.497Z,99015.11
2023-12-07T13:05:18.392Z,99015.98
2023-12-07T13:08:01.192Z,99015.65
2023-12-07T13:10:40.244Z,99017.98
2023-12-07T13:13:12.078Z,99019.88
2023-12-07T13:15:43.934Z,99021.31
2023-12-07T13:18:15.810Z,99018.70
2023-12-07T13:20:53.853Z,99018.45
2023-12-07T13:23:28.360Z,99019.70
2023-12-07T13:26:00.303Z,99019.92
2023-12-07T13:28:32.312Z,99017.13
2023-12-07T13:31:04.496Z,99014.39
2023-12-07T13:33:43.132Z,99020.42
2023-12-07T13:36:24.211Z,99025.33
2023-12-07T13:38:56.040Z,99025.70
2023-12-07T13:41:27.864Z,99029.40
2023-12-07T13:43:59.630Z,99033.92
2023-12-07T13:46:32.454Z,99033.14
2023-12-07T13:49:05.453Z,99035.14
2023-12-07T13:51:37.253Z,99038.43
2023-12-07T13:54:23.303Z,99035.12
2023-12-07T13:57:00.979Z,99040.86
2023-12-07T13:59:32.751Z,99045.08
2023-12-07T14:02:04.636Z,99042.98
2023-12-07T14:04:36.949Z,99044.82
2023-12-07T14:07:13.256Z,99048.80
2023-12-07T14:09:53.693Z,99051.87
2023-12-07T14:12:30.710Z,99055.80
2023-12-07T14:15:02.787Z,99059.52
2023-12-07T14:20:22.352Z,99067.02
2023-12-07T14:23:07.077Z,99072.73
2023-12-07T14:25:41.117Z,99072.31
2023-12-07T14:28:12.967Z,99071.61
2023-12-07T14:30:44.778Z,99069.54
2023-12-07T14:33:16.897Z,99074.69
2023-12-07T14:35:49.898Z,99076.74
2023-12-07T14:38:21.781Z,99078.24
2023-12-07T14:40:56.112Z,99076.07
2023-12-07T14:43:27.940Z,99077.45
2023-12-07T14:45:59.686Z,99078.63
2023-12-07T14:48:31.588Z,99082.98
2023-12-07T14:51:03.808Z,99088.98
2023-12-07T14:53:35.803Z,99087.41
2023-12-07T14:56:08.595Z,99085.05
2023-12-07T14:58:42.328Z,99084.02
2023-12-07T15:01:14.665Z,99088.63
2023-12-07T15:03:46.590Z,99091.45
2023-12-07T15:06:19.271Z,99092.48
2023-12-07T15:08:51.162Z,99092.86
2023-12-07T15:11:23.038Z,99099.73
2023-12-07T15:13:54.805Z,99100.70
2023-12-07T15:16:27.375Z,99098.83
2023-12-07T15:18:59.565Z,99101.39
2023-12-07T15:21:31.529Z,99103.59
2023-12-07T15:24:04.436Z,99096.97
2023-12-07T15:26:36.529Z,99095.64
2023-12-07T15:29:08.450Z,99103.20
2023-12-07T15:31:40.229Z,99101.43
2023-12-07T15:34:22.365Z,99102.95
2023-12-07T15:37:00.336Z,99102.77
2023-12-07T15:39:32.170Z,99098.70
2023-12-07T15:42:04.469Z,99094.52
2023-12-07T15:44:36.517Z,99094.29
2023-12-07T15:47:08.660Z,99092.23
2023-12-07T15:49:42.364Z,99095.64
2023-12-07T15:52:14.361Z,99101.98
2023-12-07T15:54:46.367Z,99101.47
2023-12-07T15:57:18.218Z,99103.68
2023-12-07T15:59:50.025Z,99105.16
2023-12-07T16:02:21.919Z,99102.46
2023-12-07T16:04:54.544Z,99106.77
2023-12-07T16:07:26.491Z,99108.80
2023-12-07T16:09:58.318Z,99109.20
2023-12-07T16:12:30.064Z,99111.26
2023-12-07T16:15:01.919Z,99113.61
2023-12-07T16:17:34.006Z,99114.35
2023-12-07T16:20:11.327Z,99113.71
2023-12-07T16:22:43.958Z,99112.45
2023-12-07T16:25:22.532Z,99121.50
2023-12-07T16:27:55.264Z,99123.92
2023-12-07T16:30:31.418Z,99119.13
2023-12-07T16:33:06.176Z,99126.14
2023-12-07T16:35:38.012Z,99127.30
2023-12-07T16:38:10.351Z,99124.66
2023-12-07T16:40:42.149Z,99127.21
2023-12-07T16:43:14.333Z,99127.27
2023-12-07T16:45:47.696Z,99124.71
2023-12-07T16:48:19.599Z,99125.73
2023-12-07T16:50:51.482Z,99121.06
2023-12-07T16:53:23.714Z,99125.04
2023-12-07T16:55:56.936Z,99125.92
2023-12-07T16:58:30.932Z,99131.29
2023-12-07T17:01:04.121Z,99131.77
2023-12-07T17:03:36.470Z,99131.02
2023-12-07T17:06:12.080Z,99130.02
2023-12-07T17:08:44.236Z,99131.34
2023-12-07T17:11:16.194Z,99134.04
2023-12-07T17:13:47.955Z,99134.50
2023-12-07T17:16:19.732Z,99134.02
2023-12-07T17:18:53.059Z,99133.70
2023-12-07T17:21:23.592Z,99134.27
2023-12-07T17:23:55.449Z,99137.56
2023-12-07T17:26:30.888Z,99133.25
2023-12-07T17:29:08.764Z,99131.52
2023-12-07T17:31:41.899Z,99129.05
2023-12-07T17:34:13.965Z,99136.18
2023-12-07T17:36:45.800Z,99138.47
2023-12-07T17:39:17.728Z,99143.36
2023-12-07T17:41:49.770Z,99139.16
2023-12-07T17:44:21.662Z,99140.79
2023-12-07T17:46:53.471Z,99141.14
2023-12-07T17:49:25.282Z,99139.35
2023-12-07T17:51:57.081Z,99143.14
2023-12-07T17:54:28.843Z,99139.66
2023-12-07T17:57:00.755Z,99140.54
2023-12-07T17:59:32.568Z,99143.73
2023-12-07T18:02:04.572Z,99138.81
2023-12-07T18:04:37.586Z,99142.48
2023-12-07T18:07:09.399Z,99143.38
2023-12-07T18:09:42.948Z,99141.23
2023-12-07T18:12:13.359Z,99140.73
2023-12-07T18:14:45.171Z,99140.80
2023-12-07T18:17:21.755Z,99142.92
2023-12-07T18:19:53.593Z,99144.63
2023-12-07T18:22:28.257Z,99145.94
2023-12-07T18:25:00.056Z,99148.18
2023-12-07T18:27:31.848Z,99147.00
2023-12-07T18:30:03.827Z,99149.73
2023-12-07T18:32:36.104Z,99146.21
2023-12-07T18:35:09.669Z,99144.62
2023-12-07T18:37:41.717Z,99144.30
2023-12-07T18:40:14.466Z,99143.54
2023-12-07T18:42:46.292Z,99147.83
2023-12-07T18:45:18.235Z,99148.31
2023-12-07T18:47:50.411Z,99149.32
2023-12-07T18:50:22.321Z,99146.39
2023-12-07T18:52:54.104Z,99142.71
2023-12-07T18:55:25.999Z,99142.81
2023-12-07T18:57:58.055Z,99143.29
2023-12-07T19:00:31.865Z,99143.42
2023-12-07T19:03:03.709Z,99146.36
2023-12-07T19:05:35.688Z,99151.60
2023-12-07T19:08:11.454Z,99150.48
2023-12-07T19:10:45.310Z,99151.61
2023-12-07T19:13:17.030Z,99147.62
2023-12-07T19:15:50.340Z,99148.64
2023-12-07T19:18:22.462Z,99143.04
2023-12-07T19:20:54.446Z,99144.71
2023-12-07T19:23:26.331Z,99148.74
2023-12-07T19:25:58.162Z,99143.77
2023-12-07T19:28:29.916Z,99142.38
2023-12-07T19:31:01.723Z,99143.78
2023-12-07T19:33:34.271Z,99151.24
2023-12-07T19:36:06.794Z,99149.84
2023-12-07T19:38:38.654Z,99155.20
2023-12-07T19:41:12.005Z,99155.66
2023-12-07T19:43:44.034Z,99148.19
2023-12-07T19:46:22.259Z,99150.14
2023-12-07T19:48:54.142Z,99154.37
2023-12-07T19:51:26.007Z,99152.89
2023-12-07T19:53:58.090Z,99151.70
2023-12-07T19:56:30.331Z,99151.05
2023-12-07T19:59:02.138Z,99153.48
2023-12-07T20:01:33.872Z,99154.65
2023-12-07T20:04:05.787Z,99156.99
2023-12-07T20:06:39.646Z,99151.20
2023-12-07T20:09:15.293Z,99151.78
2023-12-07T20:11:47.553Z,99149.65
2023-12-07T20:14:19.615Z,99148.44
2023-12-07T20:16:51.508Z,99145.77
2023-12-07T20:19:24.143Z,99152.35
2023-12-07T20:21:56.112Z,99154.05
2023-12-07T20:24:27.854Z,99156.28
2023-12-07T20:26:59.596Z,99154.78
2023-12-07T20:29:31.448Z,99152.68
2023-12-07T20:32:03.275Z,99155.01
2023-12-07T20:34:35.073Z,99161.16
2023-12-07T20:37:07.391Z,99159.36
2023-12-07T20:39:39.302Z,99162.28
2023-12-07T20:42:11.269Z,99163.11
2023-12-07T20:44:43.529Z,99166.02
2023-12-07T20:47:15.412Z,99166.66
2023-12-07T20:49:47.263Z,99167.85
2023-12-07T20:52:20.472Z,99167.95
2023-12-07T20:54:52.807Z,99167.58
2023-12-07T20:57:24.967Z,99164.67
2023-12-07T20:59:57.085Z,99165.75
2023-12-07T21:02:28.909Z,99168.59
2023-12-07T21:05:01.564Z,99165.56
2023-12-07T21:07:33.569Z,99168.91
2023-12-07T21:10:05.814Z,99175.90
2023-12-07T21:12:37.571Z,99181.36
2023-12-07T21:15:10.918Z,99181.80
2023-12-07T21:17:42.885Z,99179.83
2023-12-07T21:20:14.968Z,99176.77
2023-12-07T21:22:48.590Z,99177.54
2023-12-07T21:25:20.406Z,99174.48
2023-12-07T21:27:52.170Z,99174.06
2023-12-07T21:30:23.938Z,99176.46
2023-12-07T21:32:55.810Z,99169.28
2023-12-07T21:35:27.631Z,99162.03
2023-12-07T21:37:59.401Z,99158.55
2023-12-07T21:40:31.175Z,99155.16
2023-12-07T21:43:03.268Z,99150.42
2023-12-07T21:45:36.606Z,99145.73
2023-12-07T21:48:10.051Z,99140.66
2023-12-07T21:50:41.912Z,99141.17
2023-12-07T21:53:13.727Z,99148.41
2023-12-07T21:55:45.633Z,99153.99
2023-12-07T21:58:17.723Z,99150.34
2023-12-07T22:00:49.549Z,99152.81
2023-12-07T22:03:21.610Z,99145.92
2023-12-07T22:05:53.456Z,99140.27
2023-12-07T22:08:25.210Z,99135.98
2023-12-07T22:10:56.960Z,99134.25
2023-12-07T22:13:28.738Z,99129.75
2023-12-07T22:16:00.483Z,99125.05
2023-12-07T22:18:32.392Z,99117.67
2023-12-07T22:21:04.767Z,99113.46
2023-12-07T22:23:36.596Z,99108.73
2023-12-07T22:26:09.109Z,99104.04
2023-12-07T22:28:40.840Z,99104.73
2023-12-07T22:31:12.635Z,99101.19
2023-12-07T22:33:44.596Z,99103.90
2023-12-07T22:36:31.727Z,99106.81
2023-12-07T22:39:03.674Z,99103.52
2023-12-07T22:41:35.488Z,99106.14
2023-12-07T22:44:07.429Z,99101.55
2023-12-07T22:46:39.580Z,99101.08
2023-12-07T22:49:11.460Z,99097.81
2023-12-07T22:51:43.555Z,99094.25
2023-12-07T22:54:15.377Z,99093.14
2023-12-07T22:56:47.428Z,99090.13
2023-12-07T22:59:19.330Z,99086.56
2023-12-07T23:01:51.194Z,99086.23
2023-12-07T23:04:23.044Z,99085.20
2023-12-07T23:06:54.906Z,99079.30
2023-12-07T23:09:26.694Z,99077.79
2023-12-07T23:11:58.518Z,99082.41
2023-12-07T23:14:30.429Z,99077.46
2023-12-07T23:17:02.182Z,99079.61
2023-12-07T23:19:34.064Z,99075.34
2023-12-07T23:22:06.050Z,99068.13
2023-12-07T23:24:37.902Z,99073.85
2023-12-07T23:27:09.796Z,99077.88
2023-12-07T23:29:52.519Z,99076.77
2023-12-07T23:32:26.758Z,99067.09
2023-12-07T23:34:58.594Z,99057.70
2023-12-07T23:37:31.642Z,99052.10
2023-12-07T23:40:03.807Z,99049.64
2023-12-07T23:42:35.600Z,99050.02
2023-12-07T23:45:09.355Z,99050.02
2023-12-07T23:47:41.376Z,99044.05
2023-12-07T23:50:13.464Z,99044.72
2023-12-07T23:52:45.267Z,99052.81
2023-12-07T23:55:17.178Z,99057.48
2023-12-07T23:57:49.036Z,99063.91
